Etusivu
METAR-TAF:

METAR-TAF

Lentoasemat :

Paderborn-Lippstadt, Saksa

Leveyspiiri: 51-37N, Pituuspiiri: 008-37E, korkeus merenpinnasta: 213 m

Tämänhetkinen sää

Tämä raportti tehtiin 28 minuuttia sitten, kello 10.20 UTC
Tuuli 12 kn etelästä
Lämpötila 7°C
Kosteus 66%
Ilmanpaine 1002 hPa
Näkyvyys 10 km tai enemmän
Hajonneita pilviä 3100 ft:n korkeudessa

METAR: EDLP 121020Z 18012KT 9999 BKN031 07/01 Q1002

Aika: 11:48 (10:48 UTC)

Sääennuste

Tämä raportti tehtiin 5 tuntia ja 48 minuuttia sitten, kello 05.00 UTC
Ennuste voimassa 12. päivästä klo 06 UTC - 13. päivään klo 06 UTC
Tuuli 11 kn etelästä
Näkyvyys 10 km tai enemmän
Hajonneita pilviä 3500 ft:n korkeudessa
Ajoittain
12. päivästä klo 11 UTC - 12. päivään klo 16 UTC
Tuuli 15 kn etelästä/lounaasta puuskistuen 25 kn:hen
Hajonneita pilviä 1200 ft:n korkeudessa, Cumulonimbus.
vesikuuroja, pikkurakeita tai lumirakeita

TAF: EDLP 120500Z 1206/1306 19011KT 9999 BKN035 TEMPO 1211/1216 20015G25KT SHRAGS BKN012CB

Säähavainnot ja -ennusteet yli 4000 lentoasemalta (METAR- ja TAF-raportit).

Käytössä olevat sääasemat on merkitty karttaan keltaisilla ja punaisilla pisteillä.

Aseta hiiri pisteen päälle nähdäksesi sääaseman nimen.

Klikkaa sitten nähdäksesi säähavainnot ja -ennusteet.

Kartan vaihtaminen: klikkaa mustalla rastilla varustettuja vihreitä pisteitä, niin voit zoomata sisään; viivalla varustettua vihreää pistettä, niin voit zoomata ulos tai vihreitä nuolia, niin pääset viereisille kartoille.


METAR-TAF: